sensor_id;sensor_type;location;lat;lon;timestamp;P1;durP1;ratioP1;P2;durP2;ratioP2
3922;SDS011;1976;51.694;6.256;2024-03-08T00:01:13;21.90;;;13.80;;
3922;SDS011;1976;51.694;6.256;2024-03-08T00:03:39;21.03;;;12.60;;
3922;SDS011;1976;51.694;6.256;2024-03-08T00:06:05;29.43;;;13.20;;
3922;SDS011;1976;51.694;6.256;2024-03-08T00:08:31;26.93;;;15.00;;
3922;SDS011;1976;51.694;6.256;2024-03-08T00:10:56;47.30;;;14.17;;
3922;SDS011;1976;51.694;6.256;2024-03-08T00:13:22;24.30;;;14.07;;
3922;SDS011;1976;51.694;6.256;2024-03-08T00:15:49;24.83;;;13.67;;
3922;SDS011;1976;51.694;6.256;2024-03-08T00:18:15;24.70;;;13.43;;
3922;SDS011;1976;51.694;6.256;2024-03-08T00:20:41;29.47;;;14.47;;
3922;SDS011;1976;51.694;6.256;2024-03-08T00:23:07;27.37;;;14.07;;
3922;SDS011;1976;51.694;6.256;2024-03-08T00:25:32;29.40;;;15.67;;
3922;SDS011;1976;51.694;6.256;2024-03-08T00:27:59;24.00;;;14.87;;
3922;SDS011;1976;51.694;6.256;2024-03-08T00:30:25;22.67;;;14.00;;
3922;SDS011;1976;51.694;6.256;2024-03-08T00:32:50;19.60;;;13.53;;
3922;SDS011;1976;51.694;6.256;2024-03-08T00:35:16;27.47;;;14.10;;
3922;SDS011;1976;51.694;6.256;2024-03-08T00:37:43;28.27;;;13.30;;
3922;SDS011;1976;51.694;6.256;2024-03-08T00:40:11;29.70;;;14.00;;
3922;SDS011;1976;51.694;6.256;2024-03-08T00:42:37;25.10;;;13.73;;
3922;SDS011;1976;51.694;6.256;2024-03-08T00:45:03;23.33;;;14.10;;
3922;SDS011;1976;51.694;6.256;2024-03-08T00:47:29;22.13;;;13.70;;
3922;SDS011;1976;51.694;6.256;2024-03-08T00:49:55;22.23;;;14.07;;
3922;SDS011;1976;51.694;6.256;2024-03-08T00:52:21;31.47;;;14.27;;
3922;SDS011;1976;51.694;6.256;2024-03-08T00:54:49;23.70;;;13.33;;
3922;SDS011;1976;51.694;6.256;2024-03-08T00:57:14;23.50;;;14.03;;
3922;SDS011;1976;51.694;6.256;2024-03-08T00:59:40;28.57;;;14.30;;
3922;SDS011;1976;51.694;6.256;2024-03-08T01:02:05;21.60;;;13.80;;
3922;SDS011;1976;51.694;6.256;2024-03-08T01:04:31;24.30;;;14.00;;
3922;SDS011;1976;51.694;6.256;2024-03-08T01:06:58;23.27;;;12.77;;
3922;SDS011;1976;51.694;6.256;2024-03-08T01:09:24;27.40;;;13.90;;
3922;SDS011;1976;51.694;6.256;2024-03-08T01:11:51;25.23;;;14.30;;
3922;SDS011;1976;51.694;6.256;2024-03-08T01:14:19;34.30;;;15.70;;
3922;SDS011;1976;51.694;6.256;2024-03-08T01:16:47;25.33;;;15.57;;
3922;SDS011;1976;51.694;6.256;2024-03-08T01:19:13;28.77;;;16.30;;
3922;SDS011;1976;51.694;6.256;2024-03-08T01:21:38;22.30;;;14.07;;
3922;SDS011;1976;51.694;6.256;2024-03-08T01:24:04;28.60;;;15.20;;
3922;SDS011;1976;51.694;6.256;2024-03-08T01:26:30;30.30;;;14.07;;
3922;SDS011;1976;51.694;6.256;2024-03-08T01:28:56;24.53;;;14.47;;
3922;SDS011;1976;51.694;6.256;2024-03-08T01:31:21;23.97;;;14.70;;
3922;SDS011;1976;51.694;6.256;2024-03-08T01:33:47;22.13;;;14.83;;
3922;SDS011;1976;51.694;6.256;2024-03-08T01:36:13;37.17;;;15.07;;
3922;SDS011;1976;51.694;6.256;2024-03-08T01:38:40;26.60;;;15.43;;
3922;SDS011;1976;51.694;6.256;2024-03-08T01:41:07;38.37;;;15.30;;
3922;SDS011;1976;51.694;6.256;2024-03-08T01:43:34;22.90;;;14.03;;
3922;SDS011;1976;51.694;6.256;2024-03-08T01:45:59;26.30;;;14.83;;
3922;SDS011;1976;51.694;6.256;2024-03-08T01:48:27;23.30;;;15.30;;
3922;SDS011;1976;51.694;6.256;2024-03-08T01:50:54;27.33;;;16.03;;
3922;SDS011;1976;51.694;6.256;2024-03-08T01:53:20;24.37;;;15.93;;
3922;SDS011;1976;51.694;6.256;2024-03-08T01:55:47;26.20;;;15.33;;
3922;SDS011;1976;51.694;6.256;2024-03-08T01:58:13;25.30;;;15.60;;
3922;SDS011;1976;51.694;6.256;2024-03-08T02:00:44;23.10;;;13.60;;
3922;SDS011;1976;51.694;6.256;2024-03-08T02:03:11;24.47;;;14.70;;
3922;SDS011;1976;51.694;6.256;2024-03-08T02:05:38;27.63;;;16.70;;
3922;SDS011;1976;51.694;6.256;2024-03-08T02:08:05;24.90;;;14.97;;
3922;SDS011;1976;51.694;6.256;2024-03-08T02:10:39;21.00;;;13.87;;
3922;SDS011;1976;51.694;6.256;2024-03-08T02:13:06;24.27;;;15.30;;
3922;SDS011;1976;51.694;6.256;2024-03-08T02:15:51;26.17;;;15.00;;
3922;SDS011;1976;51.694;6.256;2024-03-08T02:18:21;25.07;;;16.20;;
3922;SDS011;1976;51.694;6.256;2024-03-08T02:20:51;25.20;;;15.30;;
3922;SDS011;1976;51.694;6.256;2024-03-08T02:23:18;27.63;;;15.93;;
3922;SDS011;1976;51.694;6.256;2024-03-08T02:25:45;28.13;;;15.13;;
3922;SDS011;1976;51.694;6.256;2024-03-08T02:28:11;28.23;;;16.90;;
3922;SDS011;1976;51.694;6.256;2024-03-08T02:30:37;28.93;;;17.30;;
3922;SDS011;1976;51.694;6.256;2024-03-08T02:33:03;30.93;;;16.30;;
3922;SDS011;1976;51.694;6.256;2024-03-08T02:35:34;24.80;;;15.83;;
3922;SDS011;1976;51.694;6.256;2024-03-08T02:38:00;31.67;;;16.77;;
3922;SDS011;1976;51.694;6.256;2024-03-08T02:40:26;30.47;;;16.33;;
3922;SDS011;1976;51.694;6.256;2024-03-08T02:42:52;30.93;;;16.70;;
3922;SDS011;1976;51.694;6.256;2024-03-08T02:45:18;26.90;;;15.90;;
3922;SDS011;1976;51.694;6.256;2024-03-08T02:47:43;25.63;;;16.10;;
3922;SDS011;1976;51.694;6.256;2024-03-08T02:50:09;25.50;;;14.83;;
3922;SDS011;1976;51.694;6.256;2024-03-08T02:52:35;36.50;;;17.20;;
3922;SDS011;1976;51.694;6.256;2024-03-08T02:55:01;31.13;;;17.70;;
3922;SDS011;1976;51.694;6.256;2024-03-08T02:57:26;27.80;;;15.50;;
3922;SDS011;1976;51.694;6.256;2024-03-08T02:59:53;26.70;;;16.77;;
3922;SDS011;1976;51.694;6.256;2024-03-08T03:02:19;29.83;;;17.00;;
3922;SDS011;1976;51.694;6.256;2024-03-08T03:04:44;36.00;;;16.73;;
3922;SDS011;1976;51.694;6.256;2024-03-08T03:07:10;26.70;;;16.50;;
3922;SDS011;1976;51.694;6.256;2024-03-08T03:09:36;31.47;;;16.90;;
3922;SDS011;1976;51.694;6.256;2024-03-08T03:12:02;25.63;;;15.57;;
3922;SDS011;1976;51.694;6.256;2024-03-08T03:14:27;31.60;;;15.47;;
3922;SDS011;1976;51.694;6.256;2024-03-08T03:16:53;29.27;;;19.77;;
3922;SDS011;1976;51.694;6.256;2024-03-08T03:19:19;28.87;;;16.37;;
3922;SDS011;1976;51.694;6.256;2024-03-08T03:21:45;29.10;;;15.57;;
3922;SDS011;1976;51.694;6.256;2024-03-08T03:24:12;24.23;;;15.90;;
3922;SDS011;1976;51.694;6.256;2024-03-08T03:26:41;30.77;;;16.90;;
3922;SDS011;1976;51.694;6.256;2024-03-08T03:29:08;23.27;;;15.40;;
3922;SDS011;1976;51.694;6.256;2024-03-08T03:31:34;24.87;;;15.57;;
3922;SDS011;1976;51.694;6.256;2024-03-08T03:34:01;28.10;;;16.07;;
3922;SDS011;1976;51.694;6.256;2024-03-08T03:36:28;32.57;;;16.50;;
3922;SDS011;1976;51.694;6.256;2024-03-08T03:38:54;31.93;;;15.47;;
3922;SDS011;1976;51.694;6.256;2024-03-08T03:41:34;33.33;;;15.87;;
3922;SDS011;1976;51.694;6.256;2024-03-08T03:44:00;29.83;;;15.90;;
3922;SDS011;1976;51.694;6.256;2024-03-08T03:46:25;29.20;;;16.77;;
3922;SDS011;1976;51.694;6.256;2024-03-08T03:48:52;28.83;;;17.53;;
3922;SDS011;1976;51.694;6.256;2024-03-08T03:51:18;29.20;;;17.10;;
3922;SDS011;1976;51.694;6.256;2024-03-08T03:53:45;28.17;;;15.90;;
3922;SDS011;1976;51.694;6.256;2024-03-08T03:56:10;31.90;;;16.90;;
3922;SDS011;1976;51.694;6.256;2024-03-08T03:58:36;27.13;;;16.30;;
3922;SDS011;1976;51.694;6.256;2024-03-08T04:01:04;27.57;;;15.30;;
3922;SDS011;1976;51.694;6.256;2024-03-08T04:03:29;34.67;;;18.00;;
3922;SDS011;1976;51.694;6.256;2024-03-08T04:05:55;25.53;;;15.93;;
3922;SDS011;1976;51.694;6.256;2024-03-08T04:08:21;30.33;;;17.33;;
3922;SDS011;1976;51.694;6.256;2024-03-08T04:10:47;30.37;;;16.10;;
3922;SDS011;1976;51.694;6.256;2024-03-08T04:13:13;25.40;;;15.73;;
3922;SDS011;1976;51.694;6.256;2024-03-08T04:15:40;25.50;;;14.50;;
3922;SDS011;1976;51.694;6.256;2024-03-08T04:18:06;29.33;;;16.83;;
3922;SDS011;1976;51.694;6.256;2024-03-08T04:20:31;31.80;;;16.70;;
3922;SDS011;1976;51.694;6.256;2024-03-08T04:22:57;28.77;;;16.53;;
3922;SDS011;1976;51.694;6.256;2024-03-08T04:25:23;26.43;;;16.13;;
3922;SDS011;1976;51.694;6.256;2024-03-08T04:27:48;29.63;;;17.27;;
3922;SDS011;1976;51.694;6.256;2024-03-08T04:30:14;24.20;;;15.90;;
3922;SDS011;1976;51.694;6.256;2024-03-08T04:32:40;33.33;;;17.47;;
3922;SDS011;1976;51.694;6.256;2024-03-08T04:35:08;46.20;;;16.70;;
3922;SDS011;1976;51.694;6.256;2024-03-08T04:37:34;32.53;;;16.33;;
3922;SDS011;1976;51.694;6.256;2024-03-08T04:39:59;31.57;;;17.27;;
3922;SDS011;1976;51.694;6.256;2024-03-08T04:42:26;30.70;;;17.30;;
3922;SDS011;1976;51.694;6.256;2024-03-08T04:44:53;30.93;;;18.37;;
3922;SDS011;1976;51.694;6.256;2024-03-08T04:47:19;36.10;;;18.20;;
3922;SDS011;1976;51.694;6.256;2024-03-08T04:49:45;31.57;;;17.90;;
3922;SDS011;1976;51.694;6.256;2024-03-08T04:52:11;30.50;;;18.17;;
3922;SDS011;1976;51.694;6.256;2024-03-08T04:54:37;45.00;;;17.47;;
3922;SDS011;1976;51.694;6.256;2024-03-08T04:57:03;36.40;;;19.37;;
3922;SDS011;1976;51.694;6.256;2024-03-08T04:59:29;31.10;;;18.10;;
3922;SDS011;1976;51.694;6.256;2024-03-08T05:01:55;30.87;;;17.73;;
3922;SDS011;1976;51.694;6.256;2024-03-08T05:04:21;28.87;;;17.50;;
3922;SDS011;1976;51.694;6.256;2024-03-08T05:06:47;32.67;;;18.23;;
3922;SDS011;1976;51.694;6.256;2024-03-08T05:09:13;34.87;;;20.47;;
3922;SDS011;1976;51.694;6.256;2024-03-08T05:11:40;29.30;;;17.90;;
3922;SDS011;1976;51.694;6.256;2024-03-08T05:14:06;38.13;;;17.73;;
3922;SDS011;1976;51.694;6.256;2024-03-08T05:16:32;36.70;;;19.83;;
3922;SDS011;1976;51.694;6.256;2024-03-08T05:18:57;30.83;;;17.20;;
3922;SDS011;1976;51.694;6.256;2024-03-08T05:21:23;24.97;;;15.67;;
3922;SDS011;1976;51.694;6.256;2024-03-08T05:23:48;30.10;;;16.70;;
3922;SDS011;1976;51.694;6.256;2024-03-08T05:26:16;30.00;;;16.80;;
3922;SDS011;1976;51.694;6.256;2024-03-08T05:28:41;27.07;;;15.70;;
3922;SDS011;1976;51.694;6.256;2024-03-08T05:31:07;29.03;;;15.60;;
3922;SDS011;1976;51.694;6.256;2024-03-08T05:33:33;31.23;;;18.00;;
3922;SDS011;1976;51.694;6.256;2024-03-08T05:36:02;30.67;;;17.40;;
3922;SDS011;1976;51.694;6.256;2024-03-08T05:38:28;30.03;;;17.90;;
3922;SDS011;1976;51.694;6.256;2024-03-08T05:40:53;34.67;;;16.57;;
3922;SDS011;1976;51.694;6.256;2024-03-08T05:43:19;30.53;;;18.30;;
3922;SDS011;1976;51.694;6.256;2024-03-08T05:45:45;34.00;;;17.87;;
3922;SDS011;1976;51.694;6.256;2024-03-08T05:48:12;29.70;;;17.80;;
3922;SDS011;1976;51.694;6.256;2024-03-08T05:50:38;34.77;;;17.87;;
3922;SDS011;1976;51.694;6.256;2024-03-08T05:53:04;29.07;;;16.70;;
3922;SDS011;1976;51.694;6.256;2024-03-08T05:55:32;39.50;;;18.23;;
3922;SDS011;1976;51.694;6.256;2024-03-08T05:58:01;36.70;;;17.33;;
3922;SDS011;1976;51.694;6.256;2024-03-08T06:00:27;36.63;;;17.83;;
3922;SDS011;1976;51.694;6.256;2024-03-08T06:02:53;31.73;;;18.27;;
3922;SDS011;1976;51.694;6.256;2024-03-08T06:05:18;35.77;;;17.17;;
3922;SDS011;1976;51.694;6.256;2024-03-08T06:07:44;28.03;;;17.40;;
3922;SDS011;1976;51.694;6.256;2024-03-08T06:10:10;30.97;;;17.67;;
3922;SDS011;1976;51.694;6.256;2024-03-08T06:12:42;32.67;;;17.90;;
3922;SDS011;1976;51.694;6.256;2024-03-08T06:15:08;33.10;;;17.90;;
3922;SDS011;1976;51.694;6.256;2024-03-08T06:17:35;37.33;;;18.73;;
3922;SDS011;1976;51.694;6.256;2024-03-08T06:20:01;42.80;;;19.67;;
3922;SDS011;1976;51.694;6.256;2024-03-08T06:22:28;31.37;;;17.33;;
3922;SDS011;1976;51.694;6.256;2024-03-08T06:24:55;31.03;;;16.10;;
3922;SDS011;1976;51.694;6.256;2024-03-08T06:27:21;28.60;;;15.67;;
3922;SDS011;1976;51.694;6.256;2024-03-08T06:29:47;41.10;;;18.60;;
3922;SDS011;1976;51.694;6.256;2024-03-08T06:32:14;31.70;;;16.83;;
3922;SDS011;1976;51.694;6.256;2024-03-08T06:34:40;38.40;;;17.10;;
3922;SDS011;1976;51.694;6.256;2024-03-08T06:37:06;24.50;;;15.10;;
3922;SDS011;1976;51.694;6.256;2024-03-08T06:39:31;31.47;;;17.60;;
3922;SDS011;1976;51.694;6.256;2024-03-08T06:41:57;29.93;;;16.73;;
3922;SDS011;1976;51.694;6.256;2024-03-08T06:44:23;29.97;;;18.97;;
3922;SDS011;1976;51.694;6.256;2024-03-08T06:46:48;37.70;;;18.70;;
3922;SDS011;1976;51.694;6.256;2024-03-08T06:49:14;35.00;;;18.07;;
3922;SDS011;1976;51.694;6.256;2024-03-08T06:51:40;31.20;;;17.50;;
3922;SDS011;1976;51.694;6.256;2024-03-08T06:54:06;32.83;;;16.97;;
3922;SDS011;1976;51.694;6.256;2024-03-08T06:56:34;29.60;;;17.83;;
3922;SDS011;1976;51.694;6.256;2024-03-08T06:59:00;26.87;;;15.63;;
3922;SDS011;1976;51.694;6.256;2024-03-08T07:01:28;22.53;;;16.73;;
3922;SDS011;1976;51.694;6.256;2024-03-08T07:03:56;28.07;;;16.80;;
3922;SDS011;1976;51.694;6.256;2024-03-08T07:06:22;29.37;;;16.17;;
3922;SDS011;1976;51.694;6.256;2024-03-08T07:08:48;28.03;;;15.77;;
3922;SDS011;1976;51.694;6.256;2024-03-08T07:11:14;38.43;;;18.40;;
3922;SDS011;1976;51.694;6.256;2024-03-08T07:13:43;35.17;;;19.50;;
3922;SDS011;1976;51.694;6.256;2024-03-08T07:16:12;40.03;;;18.10;;
3922;SDS011;1976;51.694;6.256;2024-03-08T07:18:37;31.13;;;17.70;;
3922;SDS011;1976;51.694;6.256;2024-03-08T07:21:08;31.03;;;16.33;;
3922;SDS011;1976;51.694;6.256;2024-03-08T07:23:35;34.83;;;17.77;;
3922;SDS011;1976;51.694;6.256;2024-03-08T07:26:27;30.70;;;16.90;;
3922;SDS011;1976;51.694;6.256;2024-03-08T07:28:53;27.73;;;17.43;;
3922;SDS011;1976;51.694;6.256;2024-03-08T07:31:20;27.67;;;15.70;;
3922;SDS011;1976;51.694;6.256;2024-03-08T07:33:59;33.63;;;17.17;;
3922;SDS011;1976;51.694;6.256;2024-03-08T07:36:25;36.07;;;17.97;;
3922;SDS011;1976;51.694;6.256;2024-03-08T07:38:51;32.27;;;16.67;;
3922;SDS011;1976;51.694;6.256;2024-03-08T07:41:16;30.10;;;15.47;;
3922;SDS011;1976;51.694;6.256;2024-03-08T07:43:42;34.07;;;17.40;;
3922;SDS011;1976;51.694;6.256;2024-03-08T07:46:07;33.97;;;17.67;;
3922;SDS011;1976;51.694;6.256;2024-03-08T07:48:35;32.77;;;16.63;;
3922;SDS011;1976;51.694;6.256;2024-03-08T07:51:01;29.30;;;16.27;;
3922;SDS011;1976;51.694;6.256;2024-03-08T07:53:28;35.63;;;17.27;;
3922;SDS011;1976;51.694;6.256;2024-03-08T07:55:54;32.00;;;18.90;;
3922;SDS011;1976;51.694;6.256;2024-03-08T07:58:19;32.77;;;19.10;;
3922;SDS011;1976;51.694;6.256;2024-03-08T08:00:45;24.63;;;15.03;;
3922;SDS011;1976;51.694;6.256;2024-03-08T08:03:11;33.20;;;18.70;;
3922;SDS011;1976;51.694;6.256;2024-03-08T08:05:37;35.53;;;18.93;;
3922;SDS011;1976;51.694;6.256;2024-03-08T08:08:04;34.90;;;17.27;;
3922;SDS011;1976;51.694;6.256;2024-03-08T08:10:31;31.17;;;17.53;;
3922;SDS011;1976;51.694;6.256;2024-03-08T08:12:59;31.17;;;16.87;;
3922;SDS011;1976;51.694;6.256;2024-03-08T08:15:25;40.50;;;18.80;;
3922;SDS011;1976;51.694;6.256;2024-03-08T08:17:53;32.10;;;17.67;;
3922;SDS011;1976;51.694;6.256;2024-03-08T08:20:18;36.73;;;16.30;;
3922;SDS011;1976;51.694;6.256;2024-03-08T08:22:44;34.80;;;19.27;;
3922;SDS011;1976;51.694;6.256;2024-03-08T08:25:09;30.03;;;18.00;;
3922;SDS011;1976;51.694;6.256;2024-03-08T08:27:38;33.20;;;18.70;;
3922;SDS011;1976;51.694;6.256;2024-03-08T08:30:10;23.77;;;16.07;;
3922;SDS011;1976;51.694;6.256;2024-03-08T08:32:36;29.90;;;16.70;;
3922;SDS011;1976;51.694;6.256;2024-03-08T08:35:08;31.73;;;18.10;;
3922;SDS011;1976;51.694;6.256;2024-03-08T08:37:34;28.63;;;17.73;;
3922;SDS011;1976;51.694;6.256;2024-03-08T08:40:03;31.70;;;19.97;;
3922;SDS011;1976;51.694;6.256;2024-03-08T08:42:34;30.37;;;16.13;;
3922;SDS011;1976;51.694;6.256;2024-03-08T08:45:00;29.90;;;18.60;;
3922;SDS011;1976;51.694;6.256;2024-03-08T08:47:29;27.43;;;17.50;;
3922;SDS011;1976;51.694;6.256;2024-03-08T08:49:54;30.97;;;17.40;;
3922;SDS011;1976;51.694;6.256;2024-03-08T08:52:20;26.60;;;17.43;;
3922;SDS011;1976;51.694;6.256;2024-03-08T08:54:45;30.43;;;17.33;;
3922;SDS011;1976;51.694;6.256;2024-03-08T08:57:11;24.47;;;15.80;;
3922;SDS011;1976;51.694;6.256;2024-03-08T08:59:37;31.13;;;18.40;;
3922;SDS011;1976;51.694;6.256;2024-03-08T09:02:04;27.17;;;16.33;;
3922;SDS011;1976;51.694;6.256;2024-03-08T09:04:31;26.10;;;15.80;;
3922;SDS011;1976;51.694;6.256;2024-03-08T09:06:57;28.30;;;16.83;;
3922;SDS011;1976;51.694;6.256;2024-03-08T09:09:22;26.93;;;17.63;;
3922;SDS011;1976;51.694;6.256;2024-03-08T09:11:49;28.60;;;16.13;;
3922;SDS011;1976;51.694;6.256;2024-03-08T09:14:14;34.30;;;17.73;;
3922;SDS011;1976;51.694;6.256;2024-03-08T09:16:40;27.47;;;17.60;;
3922;SDS011;1976;51.694;6.256;2024-03-08T09:19:06;26.43;;;17.50;;
3922;SDS011;1976;51.694;6.256;2024-03-08T09:21:32;29.27;;;16.47;;
3922;SDS011;1976;51.694;6.256;2024-03-08T09:23:59;25.90;;;17.50;;
3922;SDS011;1976;51.694;6.256;2024-03-08T09:26:25;28.20;;;16.80;;
3922;SDS011;1976;51.694;6.256;2024-03-08T09:28:51;28.50;;;17.77;;
3922;SDS011;1976;51.694;6.256;2024-03-08T09:31:17;27.53;;;16.33;;
3922;SDS011;1976;51.694;6.256;2024-03-08T09:33:43;24.30;;;16.50;;
3922;SDS011;1976;51.694;6.256;2024-03-08T09:36:08;26.90;;;17.63;;
3922;SDS011;1976;51.694;6.256;2024-03-08T09:38:34;29.53;;;15.73;;
3922;SDS011;1976;51.694;6.256;2024-03-08T09:41:00;25.90;;;17.23;;
3922;SDS011;1976;51.694;6.256;2024-03-08T09:43:27;30.50;;;18.43;;
3922;SDS011;1976;51.694;6.256;2024-03-08T09:45:53;23.23;;;15.77;;
3922;SDS011;1976;51.694;6.256;2024-03-08T09:48:20;26.70;;;16.30;;
3922;SDS011;1976;51.694;6.256;2024-03-08T09:50:47;23.33;;;16.17;;
3922;SDS011;1976;51.694;6.256;2024-03-08T09:53:13;20.83;;;15.10;;
3922;SDS011;1976;51.694;6.256;2024-03-08T09:55:39;23.37;;;16.30;;
3922;SDS011;1976;51.694;6.256;2024-03-08T09:58:07;23.90;;;15.37;;
3922;SDS011;1976;51.694;6.256;2024-03-08T10:00:53;27.90;;;16.20;;
3922;SDS011;1976;51.694;6.256;2024-03-08T10:03:19;26.67;;;16.33;;
3922;SDS011;1976;51.694;6.256;2024-03-08T10:05:45;26.00;;;15.87;;
3922;SDS011;1976;51.694;6.256;2024-03-08T10:08:11;23.00;;;15.83;;
3922;SDS011;1976;51.694;6.256;2024-03-08T10:10:38;27.00;;;15.97;;
3922;SDS011;1976;51.694;6.256;2024-03-08T10:13:07;31.13;;;15.53;;
3922;SDS011;1976;51.694;6.256;2024-03-08T10:15:33;23.13;;;15.87;;
3922;SDS011;1976;51.694;6.256;2024-03-08T10:17:58;25.60;;;17.20;;
3922;SDS011;1976;51.694;6.256;2024-03-08T10:20:24;16.93;;;12.37;;
3922;SDS011;1976;51.694;6.256;2024-03-08T10:22:51;22.97;;;14.90;;
3922;SDS011;1976;51.694;6.256;2024-03-08T10:25:18;24.20;;;14.27;;
3922;SDS011;1976;51.694;6.256;2024-03-08T10:27:44;22.77;;;14.43;;
3922;SDS011;1976;51.694;6.256;2024-03-08T10:30:10;20.17;;;14.17;;
3922;SDS011;1976;51.694;6.256;2024-03-08T10:32:41;26.80;;;14.67;;
3922;SDS011;1976;51.694;6.256;2024-03-08T10:35:09;21.73;;;13.67;;
3922;SDS011;1976;51.694;6.256;2024-03-08T10:37:42;15.60;;;12.40;;
3922;SDS011;1976;51.694;6.256;2024-03-08T10:40:13;20.20;;;13.13;;
3922;SDS011;1976;51.694;6.256;2024-03-08T10:45:26;19.90;;;13.47;;
3922;SDS011;1976;51.694;6.256;2024-03-08T10:48:24;25.43;;;13.43;;
3922;SDS011;1976;51.694;6.256;2024-03-08T10:51:03;21.93;;;15.03;;
3922;SDS011;1976;51.694;6.256;2024-03-08T10:53:29;19.07;;;12.80;;
3922;SDS011;1976;51.694;6.256;2024-03-08T10:55:58;15.90;;;13.20;;
3922;SDS011;1976;51.694;6.256;2024-03-08T10:58:25;18.10;;;12.93;;
3922;SDS011;1976;51.694;6.256;2024-03-08T11:00:55;25.03;;;13.87;;
3922;SDS011;1976;51.694;6.256;2024-03-08T11:06:19;22.70;;;13.80;;
3922;SDS011;1976;51.694;6.256;2024-03-08T11:14:55;19.20;;;13.63;;
3922;SDS011;1976;51.694;6.256;2024-03-08T11:19:56;17.20;;;12.13;;
3922;SDS011;1976;51.694;6.256;2024-03-08T11:22:27;18.53;;;12.67;;
3922;SDS011;1976;51.694;6.256;2024-03-08T11:25:07;18.27;;;12.97;;
3922;SDS011;1976;51.694;6.256;2024-03-08T11:27:35;19.93;;;14.00;;
3922;SDS011;1976;51.694;6.256;2024-03-08T11:32:36;19.47;;;14.37;;
3922;SDS011;1976;51.694;6.256;2024-03-08T11:35:17;16.77;;;12.13;;
3922;SDS011;1976;51.694;6.256;2024-03-08T11:37:44;19.87;;;12.70;;
3922;SDS011;1976;51.694;6.256;2024-03-08T11:40:13;17.60;;;12.40;;
3922;SDS011;1976;51.694;6.256;2024-03-08T11:42:43;17.03;;;12.50;;
3922;SDS011;1976;51.694;6.256;2024-03-08T11:45:11;17.07;;;11.77;;
3922;SDS011;1976;51.694;6.256;2024-03-08T11:47:38;20.80;;;13.00;;
3922;SDS011;1976;51.694;6.256;2024-03-08T11:50:06;21.07;;;14.07;;
3922;SDS011;1976;51.694;6.256;2024-03-08T11:52:36;18.97;;;13.07;;
3922;SDS011;1976;51.694;6.256;2024-03-08T11:55:02;17.80;;;13.30;;
3922;SDS011;1976;51.694;6.256;2024-03-08T11:57:30;23.13;;;14.77;;
3922;SDS011;1976;51.694;6.256;2024-03-08T11:59:58;17.00;;;12.40;;
3922;SDS011;1976;51.694;6.256;2024-03-08T12:02:31;16.47;;;12.30;;
3922;SDS011;1976;51.694;6.256;2024-03-08T12:05:00;18.00;;;11.37;;
3922;SDS011;1976;51.694;6.256;2024-03-08T12:07:28;20.97;;;13.00;;
3922;SDS011;1976;51.694;6.256;2024-03-08T12:10:16;16.57;;;11.67;;
3922;SDS011;1976;51.694;6.256;2024-03-08T12:12:46;24.33;;;13.00;;
3922;SDS011;1976;51.694;6.256;2024-03-08T12:15:20;16.87;;;12.53;;
3922;SDS011;1976;51.694;6.256;2024-03-08T12:17:48;17.50;;;13.07;;
3922;SDS011;1976;51.694;6.256;2024-03-08T12:22:48;18.30;;;12.40;;
3922;SDS011;1976;51.694;6.256;2024-03-08T12:25:14;18.17;;;11.73;;
3922;SDS011;1976;51.694;6.256;2024-03-08T12:27:41;16.67;;;12.67;;
3922;SDS011;1976;51.694;6.256;2024-03-08T12:30:17;18.97;;;12.77;;
3922;SDS011;1976;51.694;6.256;2024-03-08T12:32:51;19.20;;;14.10;;
3922;SDS011;1976;51.694;6.256;2024-03-08T12:35:19;18.63;;;13.17;;
3922;SDS011;1976;51.694;6.256;2024-03-08T12:37:47;17.03;;;12.10;;
3922;SDS011;1976;51.694;6.256;2024-03-08T12:40:14;18.87;;;12.53;;
3922;SDS011;1976;51.694;6.256;2024-03-08T12:42:42;20.87;;;13.60;;
3922;SDS011;1976;51.694;6.256;2024-03-08T12:45:08;27.63;;;13.40;;
3922;SDS011;1976;51.694;6.256;2024-03-08T12:47:35;17.33;;;13.10;;
3922;SDS011;1976;51.694;6.256;2024-03-08T12:50:01;19.60;;;13.40;;
3922;SDS011;1976;51.694;6.256;2024-03-08T12:52:28;15.30;;;11.80;;
3922;SDS011;1976;51.694;6.256;2024-03-08T12:54:55;23.20;;;13.10;;
3922;SDS011;1976;51.694;6.256;2024-03-08T12:57:20;16.20;;;11.33;;
3922;SDS011;1976;51.694;6.256;2024-03-08T12:59:46;21.40;;;13.70;;
3922;SDS011;1976;51.694;6.256;2024-03-08T13:02:12;17.53;;;12.23;;
3922;SDS011;1976;51.694;6.256;2024-03-08T13:04:37;18.37;;;12.10;;
3922;SDS011;1976;51.694;6.256;2024-03-08T13:07:03;19.90;;;13.23;;
3922;SDS011;1976;51.694;6.256;2024-03-08T13:09:28;18.40;;;12.23;;
3922;SDS011;1976;51.694;6.256;2024-03-08T13:11:54;15.40;;;11.20;;
3922;SDS011;1976;51.694;6.256;2024-03-08T13:14:20;19.73;;;12.63;;
3922;SDS011;1976;51.694;6.256;2024-03-08T13:16:47;19.50;;;12.10;;
3922;SDS011;1976;51.694;6.256;2024-03-08T13:19:13;22.03;;;13.57;;
3922;SDS011;1976;51.694;6.256;2024-03-08T13:21:38;19.20;;;12.70;;
3922;SDS011;1976;51.694;6.256;2024-03-08T13:24:04;13.03;;;11.03;;
3922;SDS011;1976;51.694;6.256;2024-03-08T13:26:30;15.17;;;12.27;;
3922;SDS011;1976;51.694;6.256;2024-03-08T13:28:58;18.70;;;12.50;;
3922;SDS011;1976;51.694;6.256;2024-03-08T13:31:24;21.90;;;13.30;;
3922;SDS011;1976;51.694;6.256;2024-03-08T13:33:49;18.27;;;12.87;;
3922;SDS011;1976;51.694;6.256;2024-03-08T13:36:16;19.60;;;12.40;;
3922;SDS011;1976;51.694;6.256;2024-03-08T13:38:46;22.10;;;12.57;;
3922;SDS011;1976;51.694;6.256;2024-03-08T13:41:15;16.40;;;12.00;;
3922;SDS011;1976;51.694;6.256;2024-03-08T13:43:42;19.40;;;12.80;;
3922;SDS011;1976;51.694;6.256;2024-03-08T13:46:11;18.70;;;12.23;;
3922;SDS011;1976;51.694;6.256;2024-03-08T13:48:37;18.90;;;11.23;;
3922;SDS011;1976;51.694;6.256;2024-03-08T13:51:06;19.40;;;12.47;;
3922;SDS011;1976;51.694;6.256;2024-03-08T13:53:35;16.47;;;11.47;;
3922;SDS011;1976;51.694;6.256;2024-03-08T13:56:04;17.80;;;12.70;;
3922;SDS011;1976;51.694;6.256;2024-03-08T13:58:30;14.90;;;11.20;;
3922;SDS011;1976;51.694;6.256;2024-03-08T14:00:56;21.67;;;12.10;;
3922;SDS011;1976;51.694;6.256;2024-03-08T14:03:22;19.73;;;12.50;;
3922;SDS011;1976;51.694;6.256;2024-03-08T14:05:49;14.50;;;11.30;;
3922;SDS011;1976;51.694;6.256;2024-03-08T14:08:14;13.40;;;10.20;;
3922;SDS011;1976;51.694;6.256;2024-03-08T14:10:42;13.93;;;10.57;;
3922;SDS011;1976;51.694;6.256;2024-03-08T14:13:08;13.97;;;10.77;;
3922;SDS011;1976;51.694;6.256;2024-03-08T14:15:34;16.80;;;11.80;;
3922;SDS011;1976;51.694;6.256;2024-03-08T14:18:00;16.53;;;11.60;;
3922;SDS011;1976;51.694;6.256;2024-03-08T14:20:31;19.40;;;11.83;;
3922;SDS011;1976;51.694;6.256;2024-03-08T14:22:57;18.80;;;11.27;;
3922;SDS011;1976;51.694;6.256;2024-03-08T14:25:24;17.37;;;11.97;;
3922;SDS011;1976;51.694;6.256;2024-03-08T14:27:50;15.60;;;11.50;;
3922;SDS011;1976;51.694;6.256;2024-03-08T14:30:18;19.00;;;12.20;;
3922;SDS011;1976;51.694;6.256;2024-03-08T14:32:58;17.30;;;11.90;;
3922;SDS011;1976;51.694;6.256;2024-03-08T14:35:25;22.47;;;11.87;;
3922;SDS011;1976;51.694;6.256;2024-03-08T14:37:51;15.03;;;11.80;;
3922;SDS011;1976;51.694;6.256;2024-03-08T14:40:17;18.03;;;13.10;;
3922;SDS011;1976;51.694;6.256;2024-03-08T14:42:47;14.30;;;10.10;;
3922;SDS011;1976;51.694;6.256;2024-03-08T14:45:14;16.13;;;11.60;;
3922;SDS011;1976;51.694;6.256;2024-03-08T14:47:40;18.30;;;11.27;;
3922;SDS011;1976;51.694;6.256;2024-03-08T14:50:08;16.07;;;11.17;;
3922;SDS011;1976;51.694;6.256;2024-03-08T14:52:37;14.33;;;12.10;;
3922;SDS011;1976;51.694;6.256;2024-03-08T14:55:05;17.80;;;11.87;;
3922;SDS011;1976;51.694;6.256;2024-03-08T14:57:31;15.93;;;11.37;;
3922;SDS011;1976;51.694;6.256;2024-03-08T14:59:57;17.27;;;11.70;;
3922;SDS011;1976;51.694;6.256;2024-03-08T15:02:34;17.90;;;11.70;;
3922;SDS011;1976;51.694;6.256;2024-03-08T15:05:02;14.00;;;10.77;;
3922;SDS011;1976;51.694;6.256;2024-03-08T15:07:34;15.13;;;12.30;;